sensor_id;sensor_type;location;lat;lon;timestamp;P1;durP1;ratioP1;P2;durP2;ratioP2
8407;SDS011;4241;48.452;9.216;2023-04-15T00:00:35;409.17;;;114.33;;
8407;SDS011;4241;48.452;9.216;2023-04-15T00:03:02;411.60;;;115.83;;
8407;SDS011;4241;48.452;9.216;2023-04-15T00:05:29;416.40;;;120.33;;
8407;SDS011;4241;48.452;9.216;2023-04-15T00:07:58;407.10;;;112.43;;
8407;SDS011;4241;48.452;9.216;2023-04-15T00:10:25;407.13;;;112.90;;
8407;SDS011;4241;48.452;9.216;2023-04-15T00:12:52;405.90;;;112.93;;
8407;SDS011;4241;48.452;9.216;2023-04-15T00:15:19;407.30;;;114.83;;
8407;SDS011;4241;48.452;9.216;2023-04-15T00:17:48;404.47;;;111.67;;
8407;SDS011;4241;48.452;9.216;2023-04-15T00:20:16;406.23;;;113.43;;
8407;SDS011;4241;48.452;9.216;2023-04-15T00:22:42;406.30;;;113.30;;
8407;SDS011;4241;48.452;9.216;2023-04-15T00:25:11;404.20;;;111.23;;
8407;SDS011;4241;48.452;9.216;2023-04-15T00:27:39;407.30;;;114.47;;
8407;SDS011;4241;48.452;9.216;2023-04-15T00:30:06;405.70;;;112.57;;
8407;SDS011;4241;48.452;9.216;2023-04-15T00:32:33;403.33;;;111.33;;
8407;SDS011;4241;48.452;9.216;2023-04-15T00:35:00;407.20;;;113.13;;
8407;SDS011;4241;48.452;9.216;2023-04-15T00:37:28;405.53;;;112.13;;
8407;SDS011;4241;48.452;9.216;2023-04-15T00:39:54;405.17;;;112.63;;
8407;SDS011;4241;48.452;9.216;2023-04-15T00:42:23;406.47;;;113.73;;
8407;SDS011;4241;48.452;9.216;2023-04-15T00:44:50;406.83;;;113.40;;
8407;SDS011;4241;48.452;9.216;2023-04-15T00:47:17;405.53;;;111.87;;
8407;SDS011;4241;48.452;9.216;2023-04-15T00:49:45;404.27;;;111.23;;
8407;SDS011;4241;48.452;9.216;2023-04-15T00:52:12;407.40;;;113.47;;
8407;SDS011;4241;48.452;9.216;2023-04-15T00:54:40;407.40;;;114.17;;
8407;SDS011;4241;48.452;9.216;2023-04-15T00:57:06;404.77;;;112.63;;
8407;SDS011;4241;48.452;9.216;2023-04-15T00:59:35;405.40;;;112.43;;
8407;SDS011;4241;48.452;9.216;2023-04-15T01:02:01;406.47;;;113.53;;
8407;SDS011;4241;48.452;9.216;2023-04-15T01:04:29;403.90;;;111.30;;
8407;SDS011;4241;48.452;9.216;2023-04-15T01:06:56;406.13;;;113.17;;
8407;SDS011;4241;48.452;9.216;2023-04-15T01:09:23;405.10;;;111.53;;
8407;SDS011;4241;48.452;9.216;2023-04-15T01:11:50;405.80;;;112.27;;
8407;SDS011;4241;48.452;9.216;2023-04-15T01:14:17;405.67;;;113.23;;
8407;SDS011;4241;48.452;9.216;2023-04-15T01:16:46;407.07;;;114.20;;
8407;SDS011;4241;48.452;9.216;2023-04-15T01:19:13;407.20;;;113.77;;
8407;SDS011;4241;48.452;9.216;2023-04-15T01:21:41;403.67;;;111.73;;
8407;SDS011;4241;48.452;9.216;2023-04-15T01:24:09;406.93;;;113.67;;
8407;SDS011;4241;48.452;9.216;2023-04-15T01:26:38;404.30;;;112.13;;
8407;SDS011;4241;48.452;9.216;2023-04-15T01:29:05;403.67;;;111.93;;
8407;SDS011;4241;48.452;9.216;2023-04-15T01:31:32;399.07;;;109.67;;
8407;SDS011;4241;48.452;9.216;2023-04-15T01:33:59;401.67;;;111.20;;
8407;SDS011;4241;48.452;9.216;2023-04-15T01:36:26;399.80;;;109.77;;
8407;SDS011;4241;48.452;9.216;2023-04-15T01:38:54;399.07;;;110.90;;
8407;SDS011;4241;48.452;9.216;2023-04-15T01:41:21;400.07;;;110.20;;
8407;SDS011;4241;48.452;9.216;2023-04-15T01:43:52;399.43;;;110.30;;
8407;SDS011;4241;48.452;9.216;2023-04-15T01:46:18;400.13;;;110.40;;
8407;SDS011;4241;48.452;9.216;2023-04-15T01:48:45;400.60;;;111.00;;
8407;SDS011;4241;48.452;9.216;2023-04-15T01:51:12;398.27;;;109.30;;
8407;SDS011;4241;48.452;9.216;2023-04-15T01:53:39;396.27;;;108.57;;
8407;SDS011;4241;48.452;9.216;2023-04-15T01:56:06;400.00;;;110.60;;
8407;SDS011;4241;48.452;9.216;2023-04-15T01:58:33;399.23;;;110.07;;
8407;SDS011;4241;48.452;9.216;2023-04-15T02:01:01;400.47;;;111.67;;
8407;SDS011;4241;48.452;9.216;2023-04-15T02:03:28;399.00;;;110.37;;
8407;SDS011;4241;48.452;9.216;2023-04-15T02:05:55;398.27;;;109.87;;
8407;SDS011;4241;48.452;9.216;2023-04-15T02:08:22;397.57;;;110.30;;
8407;SDS011;4241;48.452;9.216;2023-04-15T02:10:49;395.37;;;108.13;;
8407;SDS011;4241;48.452;9.216;2023-04-15T02:13:16;398.10;;;110.63;;
8407;SDS011;4241;48.452;9.216;2023-04-15T02:15:45;394.87;;;109.13;;
8407;SDS011;4241;48.452;9.216;2023-04-15T02:18:15;393.27;;;107.03;;
8407;SDS011;4241;48.452;9.216;2023-04-15T02:20:42;396.83;;;109.53;;
8407;SDS011;4241;48.452;9.216;2023-04-15T02:23:09;396.30;;;109.20;;
8407;SDS011;4241;48.452;9.216;2023-04-15T02:25:36;400.67;;;113.70;;
8407;SDS011;4241;48.452;9.216;2023-04-15T02:28:06;395.90;;;107.73;;
8407;SDS011;4241;48.452;9.216;2023-04-15T02:30:39;399.00;;;109.93;;
8407;SDS011;4241;48.452;9.216;2023-04-15T02:33:06;399.30;;;109.57;;
8407;SDS011;4241;48.452;9.216;2023-04-15T02:35:34;405.80;;;115.33;;
8407;SDS011;4241;48.452;9.216;2023-04-15T02:38:03;397.77;;;109.60;;
8407;SDS011;4241;48.452;9.216;2023-04-15T02:40:30;391.83;;;106.33;;
8407;SDS011;4241;48.452;9.216;2023-04-15T02:42:57;394.93;;;109.63;;
8407;SDS011;4241;48.452;9.216;2023-04-15T02:45:24;402.67;;;115.40;;
8407;SDS011;4241;48.452;9.216;2023-04-15T02:47:52;397.30;;;108.80;;
8407;SDS011;4241;48.452;9.216;2023-04-15T02:50:19;397.83;;;110.43;;
8407;SDS011;4241;48.452;9.216;2023-04-15T02:52:48;396.63;;;108.67;;
8407;SDS011;4241;48.452;9.216;2023-04-15T02:55:16;396.47;;;108.60;;
8407;SDS011;4241;48.452;9.216;2023-04-15T02:57:43;395.87;;;108.23;;
8407;SDS011;4241;48.452;9.216;2023-04-15T03:00:10;398.37;;;110.03;;
8407;SDS011;4241;48.452;9.216;2023-04-15T03:02:38;397.47;;;108.60;;
8407;SDS011;4241;48.452;9.216;2023-04-15T03:05:06;399.70;;;110.70;;
8407;SDS011;4241;48.452;9.216;2023-04-15T03:07:36;395.90;;;107.37;;
8407;SDS011;4241;48.452;9.216;2023-04-15T03:10:06;397.50;;;109.03;;
8407;SDS011;4241;48.452;9.216;2023-04-15T03:12:33;396.70;;;108.27;;
8407;SDS011;4241;48.452;9.216;2023-04-15T03:15:00;398.27;;;108.37;;
8407;SDS011;4241;48.452;9.216;2023-04-15T03:17:27;400.33;;;110.23;;
8407;SDS011;4241;48.452;9.216;2023-04-15T03:19:54;394.87;;;107.47;;
8407;SDS011;4241;48.452;9.216;2023-04-15T03:22:20;397.20;;;109.60;;
8407;SDS011;4241;48.452;9.216;2023-04-15T03:24:47;397.27;;;109.57;;
8407;SDS011;4241;48.452;9.216;2023-04-15T03:27:15;395.57;;;109.27;;
8407;SDS011;4241;48.452;9.216;2023-04-15T03:29:42;397.47;;;109.67;;
8407;SDS011;4241;48.452;9.216;2023-04-15T03:32:09;396.50;;;108.43;;
8407;SDS011;4241;48.452;9.216;2023-04-15T03:34:36;401.93;;;111.97;;
8407;SDS011;4241;48.452;9.216;2023-04-15T03:37:04;397.27;;;108.83;;
8407;SDS011;4241;48.452;9.216;2023-04-15T03:39:30;397.37;;;108.37;;
8407;SDS011;4241;48.452;9.216;2023-04-15T03:41:57;399.37;;;110.47;;
8407;SDS011;4241;48.452;9.216;2023-04-15T03:44:27;399.50;;;109.60;;
8407;SDS011;4241;48.452;9.216;2023-04-15T03:46:53;397.50;;;109.37;;
8407;SDS011;4241;48.452;9.216;2023-04-15T03:49:20;397.63;;;108.63;;
8407;SDS011;4241;48.452;9.216;2023-04-15T03:51:48;398.33;;;109.23;;
8407;SDS011;4241;48.452;9.216;2023-04-15T03:54:15;396.57;;;108.17;;
8407;SDS011;4241;48.452;9.216;2023-04-15T03:56:42;398.07;;;110.10;;
8407;SDS011;4241;48.452;9.216;2023-04-15T03:59:09;395.70;;;108.53;;
8407;SDS011;4241;48.452;9.216;2023-04-15T04:01:37;392.87;;;106.73;;
8407;SDS011;4241;48.452;9.216;2023-04-15T04:04:04;391.50;;;106.47;;
8407;SDS011;4241;48.452;9.216;2023-04-15T04:06:30;395.97;;;108.93;;
8407;SDS011;4241;48.452;9.216;2023-04-15T04:08:57;393.53;;;106.97;;
8407;SDS011;4241;48.452;9.216;2023-04-15T04:11:25;395.77;;;108.87;;
8407;SDS011;4241;48.452;9.216;2023-04-15T04:13:52;394.33;;;109.47;;
8407;SDS011;4241;48.452;9.216;2023-04-15T04:16:19;396.10;;;108.23;;
8407;SDS011;4241;48.452;9.216;2023-04-15T04:18:47;397.30;;;109.73;;
8407;SDS011;4241;48.452;9.216;2023-04-15T04:21:14;396.50;;;109.00;;
8407;SDS011;4241;48.452;9.216;2023-04-15T04:23:41;398.77;;;110.57;;
8407;SDS011;4241;48.452;9.216;2023-04-15T04:26:08;395.30;;;109.03;;
8407;SDS011;4241;48.452;9.216;2023-04-15T04:28:35;396.97;;;107.90;;
8407;SDS011;4241;48.452;9.216;2023-04-15T04:31:03;397.30;;;109.00;;
8407;SDS011;4241;48.452;9.216;2023-04-15T04:33:30;398.73;;;109.17;;
8407;SDS011;4241;48.452;9.216;2023-04-15T04:35:58;396.90;;;108.67;;
8407;SDS011;4241;48.452;9.216;2023-04-15T04:38:25;399.00;;;109.93;;
8407;SDS011;4241;48.452;9.216;2023-04-15T04:40:52;395.97;;;107.63;;
8407;SDS011;4241;48.452;9.216;2023-04-15T04:43:19;396.10;;;108.23;;
8407;SDS011;4241;48.452;9.216;2023-04-15T04:45:46;398.10;;;109.63;;
8407;SDS011;4241;48.452;9.216;2023-04-15T04:48:13;399.27;;;110.20;;
8407;SDS011;4241;48.452;9.216;2023-04-15T04:50:41;394.57;;;106.47;;
8407;SDS011;4241;48.452;9.216;2023-04-15T04:53:09;397.73;;;109.07;;
8407;SDS011;4241;48.452;9.216;2023-04-15T04:55:37;403.43;;;113.63;;
8407;SDS011;4241;48.452;9.216;2023-04-15T04:58:03;399.13;;;109.17;;
8407;SDS011;4241;48.452;9.216;2023-04-15T05:00:30;399.90;;;109.63;;
8407;SDS011;4241;48.452;9.216;2023-04-15T05:02:57;399.93;;;109.80;;
8407;SDS011;4241;48.452;9.216;2023-04-15T05:05:24;405.10;;;114.07;;
8407;SDS011;4241;48.452;9.216;2023-04-15T05:07:51;398.83;;;108.43;;
8407;SDS011;4241;48.452;9.216;2023-04-15T05:10:19;401.13;;;110.43;;
8407;SDS011;4241;48.452;9.216;2023-04-15T05:12:46;399.70;;;109.50;;
8407;SDS011;4241;48.452;9.216;2023-04-15T05:15:13;402.37;;;111.07;;
8407;SDS011;4241;48.452;9.216;2023-04-15T05:17:40;403.27;;;110.53;;
8407;SDS011;4241;48.452;9.216;2023-04-15T05:20:07;401.87;;;109.60;;
8407;SDS011;4241;48.452;9.216;2023-04-15T05:22:34;404.37;;;111.53;;
8407;SDS011;4241;48.452;9.216;2023-04-15T05:25:02;401.57;;;110.83;;
8407;SDS011;4241;48.452;9.216;2023-04-15T05:27:30;402.63;;;112.27;;
8407;SDS011;4241;48.452;9.216;2023-04-15T05:29:57;401.83;;;110.43;;
8407;SDS011;4241;48.452;9.216;2023-04-15T05:32:24;401.57;;;109.73;;
8407;SDS011;4241;48.452;9.216;2023-04-15T05:34:50;404.23;;;111.20;;
8407;SDS011;4241;48.452;9.216;2023-04-15T05:37:17;400.77;;;110.37;;
8407;SDS011;4241;48.452;9.216;2023-04-15T05:39:46;401.20;;;110.53;;
8407;SDS011;4241;48.452;9.216;2023-04-15T05:42:13;402.87;;;110.80;;
8407;SDS011;4241;48.452;9.216;2023-04-15T05:44:42;404.27;;;112.00;;
8407;SDS011;4241;48.452;9.216;2023-04-15T05:47:08;400.90;;;110.37;;
8407;SDS011;4241;48.452;9.216;2023-04-15T05:49:35;399.13;;;108.43;;
8407;SDS011;4241;48.452;9.216;2023-04-15T05:52:02;401.10;;;110.70;;
8407;SDS011;4241;48.452;9.216;2023-04-15T05:54:29;401.90;;;111.20;;
8407;SDS011;4241;48.452;9.216;2023-04-15T05:56:56;400.07;;;109.37;;
8407;SDS011;4241;48.452;9.216;2023-04-15T05:59:23;401.23;;;109.83;;
8407;SDS011;4241;48.452;9.216;2023-04-15T06:01:52;402.43;;;110.53;;
8407;SDS011;4241;48.452;9.216;2023-04-15T06:04:19;401.60;;;109.50;;
8407;SDS011;4241;48.452;9.216;2023-04-15T06:06:46;405.70;;;112.20;;
8407;SDS011;4241;48.452;9.216;2023-04-15T06:09:13;401.57;;;109.63;;
8407;SDS011;4241;48.452;9.216;2023-04-15T06:11:40;402.80;;;111.07;;
8407;SDS011;4241;48.452;9.216;2023-04-15T06:14:07;404.93;;;111.67;;
8407;SDS011;4241;48.452;9.216;2023-04-15T06:16:34;404.60;;;111.93;;
8407;SDS011;4241;48.452;9.216;2023-04-15T06:19:02;404.00;;;111.23;;
8407;SDS011;4241;48.452;9.216;2023-04-15T06:21:29;405.43;;;112.23;;
8407;SDS011;4241;48.452;9.216;2023-04-15T06:23:57;407.13;;;113.10;;
8407;SDS011;4241;48.452;9.216;2023-04-15T06:26:25;405.77;;;112.73;;
8407;SDS011;4241;48.452;9.216;2023-04-15T06:28:52;408.27;;;113.07;;
8407;SDS011;4241;48.452;9.216;2023-04-15T06:31:19;408.67;;;113.77;;
8407;SDS011;4241;48.452;9.216;2023-04-15T06:33:45;409.63;;;114.70;;
8407;SDS011;4241;48.452;9.216;2023-04-15T06:36:13;407.80;;;113.20;;
8407;SDS011;4241;48.452;9.216;2023-04-15T06:38:40;409.43;;;113.27;;
8407;SDS011;4241;48.452;9.216;2023-04-15T06:41:07;411.10;;;114.83;;
8407;SDS011;4241;48.452;9.216;2023-04-15T06:43:34;412.63;;;116.03;;
8407;SDS011;4241;48.452;9.216;2023-04-15T06:46:01;411.13;;;114.03;;
8407;SDS011;4241;48.452;9.216;2023-04-15T06:48:28;413.47;;;116.33;;
8407;SDS011;4241;48.452;9.216;2023-04-15T06:50:55;414.50;;;116.50;;
8407;SDS011;4241;48.452;9.216;2023-04-15T06:53:23;412.20;;;115.30;;
8407;SDS011;4241;48.452;9.216;2023-04-15T06:55:51;416.17;;;117.17;;
8407;SDS011;4241;48.452;9.216;2023-04-15T06:58:18;412.17;;;114.67;;
8407;SDS011;4241;48.452;9.216;2023-04-15T07:00:45;416.50;;;118.23;;
8407;SDS011;4241;48.452;9.216;2023-04-15T07:03:13;416.10;;;117.50;;
8407;SDS011;4241;48.452;9.216;2023-04-15T07:05:40;420.63;;;120.87;;
8407;SDS011;4241;48.452;9.216;2023-04-15T07:08:07;420.00;;;120.17;;
8407;SDS011;4241;48.452;9.216;2023-04-15T07:10:35;419.17;;;119.50;;
8407;SDS011;4241;48.452;9.216;2023-04-15T07:13:02;420.47;;;119.30;;
8407;SDS011;4241;48.452;9.216;2023-04-15T07:15:29;433.27;;;130.43;;
8407;SDS011;4241;48.452;9.216;2023-04-15T07:17:56;422.63;;;121.03;;
8407;SDS011;4241;48.452;9.216;2023-04-15T07:20:23;422.37;;;121.00;;
8407;SDS011;4241;48.452;9.216;2023-04-15T07:22:50;425.03;;;122.43;;
8407;SDS011;4241;48.452;9.216;2023-04-15T07:25:17;426.33;;;124.33;;
8407;SDS011;4241;48.452;9.216;2023-04-15T07:27:45;427.53;;;124.27;;
8407;SDS011;4241;48.452;9.216;2023-04-15T07:30:12;429.43;;;126.10;;
8407;SDS011;4241;48.452;9.216;2023-04-15T07:32:40;429.83;;;125.93;;
8407;SDS011;4241;48.452;9.216;2023-04-15T07:35:07;428.13;;;125.20;;
8407;SDS011;4241;48.452;9.216;2023-04-15T07:37:34;429.93;;;125.77;;
8407;SDS011;4241;48.452;9.216;2023-04-15T07:40:01;432.37;;;128.87;;
8407;SDS011;4241;48.452;9.216;2023-04-15T07:42:31;431.03;;;127.87;;
8407;SDS011;4241;48.452;9.216;2023-04-15T07:44:59;434.73;;;130.03;;
8407;SDS011;4241;48.452;9.216;2023-04-15T07:47:26;433.37;;;129.23;;
8407;SDS011;4241;48.452;9.216;2023-04-15T07:49:53;436.27;;;131.07;;
8407;SDS011;4241;48.452;9.216;2023-04-15T07:52:19;437.13;;;132.27;;
8407;SDS011;4241;48.452;9.216;2023-04-15T07:54:46;436.57;;;131.63;;
8407;SDS011;4241;48.452;9.216;2023-04-15T07:57:13;438.90;;;134.57;;
8407;SDS011;4241;48.452;9.216;2023-04-15T07:59:40;438.77;;;133.13;;
8407;SDS011;4241;48.452;9.216;2023-04-15T08:02:09;439.83;;;133.90;;
8407;SDS011;4241;48.452;9.216;2023-04-15T08:04:36;439.17;;;134.93;;
8407;SDS011;4241;48.452;9.216;2023-04-15T08:07:03;441.20;;;136.23;;
8407;SDS011;4241;48.452;9.216;2023-04-15T08:09:30;442.70;;;138.10;;
8407;SDS011;4241;48.452;9.216;2023-04-15T08:11:57;443.00;;;138.57;;
8407;SDS011;4241;48.452;9.216;2023-04-15T08:14:24;443.77;;;140.40;;
8407;SDS011;4241;48.452;9.216;2023-04-15T08:16:51;442.47;;;138.40;;
8407;SDS011;4241;48.452;9.216;2023-04-15T08:19:19;443.30;;;139.23;;
8407;SDS011;4241;48.452;9.216;2023-04-15T08:21:45;444.17;;;140.93;;
8407;SDS011;4241;48.452;9.216;2023-04-15T08:24:12;443.70;;;139.20;;
8407;SDS011;4241;48.452;9.216;2023-04-15T08:26:39;445.00;;;141.23;;
8407;SDS011;4241;48.452;9.216;2023-04-15T08:29:06;445.47;;;142.63;;
8407;SDS011;4241;48.452;9.216;2023-04-15T08:31:33;448.27;;;145.07;;
8407;SDS011;4241;48.452;9.216;2023-04-15T08:34:00;448.73;;;144.93;;
8407;SDS011;4241;48.452;9.216;2023-04-15T08:36:28;449.07;;;145.07;;
8407;SDS011;4241;48.452;9.216;2023-04-15T08:38:56;446.80;;;144.07;;
8407;SDS011;4241;48.452;9.216;2023-04-15T08:41:23;444.20;;;141.93;;
8407;SDS011;4241;48.452;9.216;2023-04-15T08:43:52;447.27;;;145.70;;
8407;SDS011;4241;48.452;9.216;2023-04-15T08:46:21;449.50;;;147.73;;
8407;SDS011;4241;48.452;9.216;2023-04-15T08:48:49;447.20;;;146.73;;
8407;SDS011;4241;48.452;9.216;2023-04-15T08:51:16;447.93;;;146.50;;
8407;SDS011;4241;48.452;9.216;2023-04-15T08:53:45;447.73;;;146.43;;
8407;SDS011;4241;48.452;9.216;2023-04-15T08:56:13;447.87;;;148.50;;
8407;SDS011;4241;48.452;9.216;2023-04-15T08:58:40;448.53;;;147.17;;
8407;SDS011;4241;48.452;9.216;2023-04-15T09:01:08;448.43;;;148.73;;
8407;SDS011;4241;48.452;9.216;2023-04-15T09:03:36;449.80;;;149.73;;
8407;SDS011;4241;48.452;9.216;2023-04-15T09:06:03;448.50;;;148.90;;
8407;SDS011;4241;48.452;9.216;2023-04-15T09:08:31;449.80;;;148.90;;
8407;SDS011;4241;48.452;9.216;2023-04-15T09:10:59;449.97;;;149.53;;
8407;SDS011;4241;48.452;9.216;2023-04-15T09:13:26;451.03;;;151.20;;
8407;SDS011;4241;48.452;9.216;2023-04-15T09:15:54;452.00;;;152.37;;
8407;SDS011;4241;48.452;9.216;2023-04-15T09:18:27;451.97;;;153.13;;
8407;SDS011;4241;48.452;9.216;2023-04-15T09:20:54;450.40;;;150.27;;
8407;SDS011;4241;48.452;9.216;2023-04-15T09:23:21;462.70;;;163.57;;
8407;SDS011;4241;48.452;9.216;2023-04-15T09:25:48;452.70;;;154.40;;
8407;SDS011;4241;48.452;9.216;2023-04-15T09:28:23;453.03;;;152.10;;
8407;SDS011;4241;48.452;9.216;2023-04-15T09:30:52;452.37;;;152.80;;
8407;SDS011;4241;48.452;9.216;2023-04-15T09:33:21;452.80;;;154.07;;
8407;SDS011;4241;48.452;9.216;2023-04-15T09:35:58;449.83;;;153.17;;
8407;SDS011;4241;48.452;9.216;2023-04-15T09:38:27;452.50;;;154.73;;
8407;SDS011;4241;48.452;9.216;2023-04-15T09:40:55;454.50;;;157.53;;
8407;SDS011;4241;48.452;9.216;2023-04-15T09:43:25;453.07;;;154.17;;
8407;SDS011;4241;48.452;9.216;2023-04-15T09:46:02;452.57;;;151.77;;
8407;SDS011;4241;48.452;9.216;2023-04-15T09:48:29;452.20;;;151.50;;
8407;SDS011;4241;48.452;9.216;2023-04-15T09:50:56;451.63;;;151.77;;
8407;SDS011;4241;48.452;9.216;2023-04-15T09:53:24;451.40;;;151.70;;
8407;SDS011;4241;48.452;9.216;2023-04-15T09:55:53;451.67;;;152.67;;
8407;SDS011;4241;48.452;9.216;2023-04-15T09:58:21;450.63;;;150.43;;
8407;SDS011;4241;48.452;9.216;2023-04-15T10:00:51;448.43;;;149.23;;
8407;SDS011;4241;48.452;9.216;2023-04-15T10:03:19;452.87;;;152.33;;
8407;SDS011;4241;48.452;9.216;2023-04-15T10:05:48;452.47;;;152.57;;
8407;SDS011;4241;48.452;9.216;2023-04-15T10:08:17;453.40;;;153.33;;
8407;SDS011;4241;48.452;9.216;2023-04-15T10:10:45;454.43;;;153.87;;
8407;SDS011;4241;48.452;9.216;2023-04-15T10:13:13;455.27;;;155.20;;
8407;SDS011;4241;48.452;9.216;2023-04-15T10:15:43;454.50;;;154.90;;
8407;SDS011;4241;48.452;9.216;2023-04-15T10:18:13;453.80;;;154.50;;
8407;SDS011;4241;48.452;9.216;2023-04-15T10:20:42;454.27;;;156.60;;
8407;SDS011;4241;48.452;9.216;2023-04-15T10:23:10;456.33;;;157.63;;
8407;SDS011;4241;48.452;9.216;2023-04-15T10:25:38;462.93;;;164.20;;
8407;SDS011;4241;48.452;9.216;2023-04-15T10:28:05;455.30;;;157.30;;
8407;SDS011;4241;48.452;9.216;2023-04-15T10:30:33;453.37;;;156.57;;
8407;SDS011;4241;48.452;9.216;2023-04-15T10:33:01;456.30;;;158.23;;
8407;SDS011;4241;48.452;9.216;2023-04-15T10:35:29;457.80;;;158.87;;
8407;SDS011;4241;48.452;9.216;2023-04-15T10:37:57;462.50;;;165.27;;
8407;SDS011;4241;48.452;9.216;2023-04-15T10:40:26;458.80;;;161.03;;
8407;SDS011;4241;48.452;9.216;2023-04-15T10:42:56;455.77;;;159.93;;
8407;SDS011;4241;48.452;9.216;2023-04-15T10:45:27;464.20;;;168.83;;
8407;SDS011;4241;48.452;9.216;2023-04-15T10:47:57;461.47;;;166.10;;
8407;SDS011;4241;48.452;9.216;2023-04-15T10:50:29;461.07;;;165.30;;
8407;SDS011;4241;48.452;9.216;2023-04-15T10:52:56;462.77;;;169.17;;
8407;SDS011;4241;48.452;9.216;2023-04-15T10:55:24;469.10;;;178.03;;
8407;SDS011;4241;48.452;9.216;2023-04-15T10:57:52;464.17;;;171.27;;
8407;SDS011;4241;48.452;9.216;2023-04-15T11:00:21;462.43;;;170.60;;
8407;SDS011;4241;48.452;9.216;2023-04-15T11:02:52;460.47;;;168.03;;
8407;SDS011;4241;48.452;9.216;2023-04-15T11:05:22;462.87;;;169.53;;
8407;SDS011;4241;48.452;9.216;2023-04-15T11:08:15;459.30;;;162.37;;
8407;SDS011;4241;48.452;9.216;2023-04-15T11:10:52;457.07;;;160.47;;
8407;SDS011;4241;48.452;9.216;2023-04-15T11:13:25;459.30;;;163.07;;
8407;SDS011;4241;48.452;9.216;2023-04-15T11:15:56;454.87;;;157.13;;
8407;SDS011;4241;48.452;9.216;2023-04-15T11:18:26;456.63;;;158.93;;
8407;SDS011;4241;48.452;9.216;2023-04-15T11:20:59;456.23;;;159.03;;
8407;SDS011;4241;48.452;9.216;2023-04-15T11:23:29;463.67;;;165.63;;
8407;SDS011;4241;48.452;9.216;2023-04-15T11:26:00;459.50;;;163.70;;
8407;SDS011;4241;48.452;9.216;2023-04-15T11:28:30;459.50;;;162.20;;
8407;SDS011;4241;48.452;9.216;2023-04-15T11:31:04;459.50;;;164.07;;
8407;SDS011;4241;48.452;9.216;2023-04-15T11:33:32;458.07;;;162.13;;
8407;SDS011;4241;48.452;9.216;2023-04-15T11:36:00;458.87;;;161.63;;
8407;SDS011;4241;48.452;9.216;2023-04-15T11:38:28;457.47;;;160.90;;
8407;SDS011;4241;48.452;9.216;2023-04-15T11:40:57;458.37;;;161.57;;
8407;SDS011;4241;48.452;9.216;2023-04-15T11:43:23;459.67;;;163.50;;
8407;SDS011;4241;48.452;9.216;2023-04-15T11:45:51;460.30;;;164.03;;
8407;SDS011;4241;48.452;9.216;2023-04-15T11:48:19;460.83;;;167.60;;
8407;SDS011;4241;48.452;9.216;2023-04-15T11:50:51;460.93;;;170.10;;
8407;SDS011;4241;48.452;9.216;2023-04-15T11:53:21;463.03;;;169.20;;
8407;SDS011;4241;48.452;9.216;2023-04-15T11:55:49;462.50;;;170.33;;
8407;SDS011;4241;48.452;9.216;2023-04-15T11:58:18;459.37;;;168.27;;
8407;SDS011;4241;48.452;9.216;2023-04-15T12:00:46;461.13;;;167.53;;
8407;SDS011;4241;48.452;9.216;2023-04-15T12:03:19;461.87;;;168.60;;
8407;SDS011;4241;48.452;9.216;2023-04-15T12:06:09;462.77;;;169.30;;
8407;SDS011;4241;48.452;9.216;2023-04-15T12:08:59;461.77;;;167.43;;
8407;SDS011;4241;48.452;9.216;2023-04-15T12:11:30;463.80;;;169.73;;
8407;SDS011;4241;48.452;9.216;2023-04-15T12:13:58;460.30;;;165.47;;
8407;SDS011;4241;48.452;9.216;2023-04-15T12:16:29;459.90;;;163.03;;
8407;SDS011;4241;48.452;9.216;2023-04-15T12:18:58;460.57;;;164.17;;
8407;SDS011;4241;48.452;9.216;2023-04-15T12:21:25;459.67;;;162.93;;
8407;SDS011;4241;48.452;9.216;2023-04-15T12:23:53;458.70;;;159.87;;
8407;SDS011;4241;48.452;9.216;2023-04-15T12:26:26;458.13;;;160.17;;
8407;SDS011;4241;48.452;9.216;2023-04-15T12:28:54;457.57;;;159.33;;
8407;SDS011;4241;48.452;9.216;2023-04-15T12:31:21;457.27;;;157.80;;
8407;SDS011;4241;48.452;9.216;2023-04-15T12:33:49;457.83;;;158.70;;
8407;SDS011;4241;48.452;9.216;2023-04-15T12:36:15;459.60;;;161.33;;
8407;SDS011;4241;48.452;9.216;2023-04-15T12:38:42;456.40;;;158.13;;
8407;SDS011;4241;48.452;9.216;2023-04-15T12:41:09;458.33;;;158.53;;
8407;SDS011;4241;48.452;9.216;2023-04-15T12:43:37;458.00;;;160.30;;
8407;SDS011;4241;48.452;9.216;2023-04-15T12:46:04;459.27;;;163.67;;
8407;SDS011;4241;48.452;9.216;2023-04-15T12:48:32;462.53;;;167.10;;
8407;SDS011;4241;48.452;9.216;2023-04-15T12:50:59;460.07;;;165.17;;
8407;SDS011;4241;48.452;9.216;2023-04-15T12:53:26;457.30;;;164.60;;
8407;SDS011;4241;48.452;9.216;2023-04-15T12:55:53;462.97;;;169.80;;
8407;SDS011;4241;48.452;9.216;2023-04-15T12:58:20;460.10;;;168.97;;
8407;SDS011;4241;48.452;9.216;2023-04-15T13:00:48;465.63;;;174.03;;
8407;SDS011;4241;48.452;9.216;2023-04-15T13:03:15;466.00;;;176.10;;
8407;SDS011;4241;48.452;9.216;2023-04-15T13:05:42;466.77;;;178.13;;
8407;SDS011;4241;48.452;9.216;2023-04-15T13:08:09;464.47;;;176.10;;
8407;SDS011;4241;48.452;9.216;2023-04-15T13:10:36;468.07;;;178.73;;
8407;SDS011;4241;48.452;9.216;2023-04-15T13:13:03;463.00;;;172.67;;
8407;SDS011;4241;48.452;9.216;2023-04-15T13:15:30;471.23;;;182.20;;
8407;SDS011;4241;48.452;9.216;2023-04-15T13:17:58;463.17;;;170.40;;
8407;SDS011;4241;48.452;9.216;2023-04-15T13:20:26;463.90;;;170.23;;
8407;SDS011;4241;48.452;9.216;2023-04-15T13:22:53;462.10;;;167.30;;
8407;SDS011;4241;48.452;9.216;2023-04-15T13:25:20;461.67;;;168.90;;
8407;SDS011;4241;48.452;9.216;2023-04-15T13:27:47;461.40;;;166.53;;
8407;SDS011;4241;48.452;9.216;2023-04-15T13:30:13;461.30;;;165.57;;
8407;SDS011;4241;48.452;9.216;2023-04-15T13:32:40;460.10;;;163.67;;
8407;SDS011;4241;48.452;9.216;2023-04-15T13:35:08;460.27;;;162.63;;
8407;SDS011;4241;48.452;9.216;2023-04-15T13:37:35;457.37;;;158.13;;
8407;SDS011;4241;48.452;9.216;2023-04-15T13:40:03;458.30;;;159.70;;
8407;SDS011;4241;48.452;9.216;2023-04-15T13:42:32;455.83;;;155.63;;
8407;SDS011;4241;48.452;9.216;2023-04-15T13:44:58;454.27;;;151.77;;
8407;SDS011;4241;48.452;9.216;2023-04-15T13:47:25;453.97;;;151.47;;
8407;SDS011;4241;48.452;9.216;2023-04-15T13:49:53;451.83;;;149.00;;
8407;SDS011;4241;48.452;9.216;2023-04-15T13:52:22;452.07;;;149.57;;
8407;SDS011;4241;48.452;9.216;2023-04-15T13:54:49;449.33;;;147.00;;
8407;SDS011;4241;48.452;9.216;2023-04-15T13:57:15;448.60;;;145.87;;
8407;SDS011;4241;48.452;9.216;2023-04-15T13:59:42;450.20;;;147.07;;
8407;SDS011;4241;48.452;9.216;2023-04-15T14:02:09;450.53;;;146.30;;
8407;SDS011;4241;48.452;9.216;2023-04-15T14:04:36;448.10;;;146.07;;
8407;SDS011;4241;48.452;9.216;2023-04-15T14:07:03;451.03;;;148.60;;
8407;SDS011;4241;48.452;9.216;2023-04-15T14:09:32;447.70;;;143.87;;
8407;SDS011;4241;48.452;9.216;2023-04-15T14:11:58;450.77;;;147.80;;
8407;SDS011;4241;48.452;9.216;2023-04-15T14:14:26;450.90;;;147.13;;
8407;SDS011;4241;48.452;9.216;2023-04-15T14:16:54;450.57;;;149.03;;
8407;SDS011;4241;48.452;9.216;2023-04-15T14:19:21;449.90;;;147.33;;
8407;SDS011;4241;48.452;9.216;2023-04-15T14:21:49;449.23;;;146.93;;
8407;SDS011;4241;48.452;9.216;2023-04-15T14:24:15;451.97;;;150.30;;